createdAt,value
2023-02-27T00:01:03.553Z,102499.34
2023-02-27T00:06:05.087Z,102507.56
2023-02-27T00:11:06.538Z,102506.06
2023-02-27T00:16:08.283Z,102513.41
2023-02-27T00:21:09.776Z,102517.88
2023-02-27T00:26:11.295Z,102514.38
2023-02-27T00:31:12.839Z,102502.41
2023-02-27T00:36:14.512Z,102509.75
2023-02-27T00:41:15.984Z,102508.19
2023-02-27T00:46:17.506Z,102510.94
2023-02-27T00:51:20.236Z,102512.88
2023-02-27T00:56:21.719Z,102519.78
2023-02-27T01:01:23.191Z,102512.66
2023-02-27T01:06:24.664Z,102522.84
2023-02-27T01:11:26.419Z,102541.06
2023-02-27T01:16:28.205Z,102532.88
2023-02-27T01:21:29.672Z,102535.16
2023-02-27T01:26:31.134Z,102524.50
2023-02-27T01:31:32.660Z,102536.38
2023-02-27T01:36:34.135Z,102541.53
2023-02-27T01:41:35.770Z,102540.31
2023-02-27T01:46:37.276Z,102525.59
2023-02-27T01:51:45.317Z,102518.28
2023-02-27T01:56:46.794Z,102517.34
2023-02-27T02:01:48.273Z,102509.41
2023-02-27T02:06:51.074Z,102494.31
2023-02-27T02:11:52.690Z,102497.31
2023-02-27T02:17:13.783Z,102500.81
2023-02-27T02:22:23.974Z,102496.81
2023-02-27T02:27:32.125Z,102503.66
2023-02-27T02:32:51.815Z,102498.88
2023-02-27T02:37:59.149Z,102493.28
2023-02-27T02:43:22.713Z,102502.91
2023-02-27T02:48:28.278Z,102502.09
2023-02-27T02:53:39.315Z,102510.78
2023-02-27T02:58:52.369Z,102526.09
2023-02-27T03:03:56.305Z,102534.59
2023-02-27T03:09:00.026Z,102535.44
2023-02-27T03:14:20.344Z,102523.72
2023-02-27T03:19:55.700Z,102528.06
2023-02-27T03:24:58.255Z,102526.56
2023-02-27T03:30:09.658Z,102542.03
2023-02-27T03:35:12.189Z,102545.59
2023-02-27T03:40:13.596Z,102550.81
2023-02-27T03:45:19.521Z,102550.97
2023-02-27T03:50:20.990Z,102555.44
2023-02-27T03:55:25.142Z,102572.63
2023-02-27T04:00:26.609Z,102562.59
2023-02-27T04:05:28.332Z,102578.97
2023-02-27T04:10:57.435Z,102586.47
2023-02-27T04:16:17.977Z,102576.38
2023-02-27T04:21:34.916Z,102573.91
2023-02-27T04:26:49.181Z,102585.13
2023-02-27T04:32:02.502Z,102595.41
2023-02-27T04:37:16.676Z,102606.72
2023-02-27T04:42:20.545Z,102599.88
2023-02-27T04:47:22.010Z,102595.75
2023-02-27T04:52:37.262Z,102597.53
2023-02-27T04:57:50.086Z,102603.41
2023-02-27T05:03:00.813Z,102620.53
2023-02-27T05:08:07.047Z,102605.03
2023-02-27T05:13:28.913Z,102599.13
2023-02-27T05:18:30.371Z,102593.81
2023-02-27T05:23:53.216Z,102600.81
2023-02-27T05:29:01.228Z,102590.69
2023-02-27T05:34:11.986Z,102588.91
2023-02-27T05:39:13.448Z,102592.28
2023-02-27T05:44:20.548Z,102590.59
2023-02-27T05:49:31.596Z,102598.28
2023-02-27T05:54:56.137Z,102612.88
2023-02-27T06:00:16.212Z,102609.41
2023-02-27T06:05:18.033Z,102618.06
2023-02-27T06:10:19.995Z,102619.00
2023-02-27T06:15:22.945Z,102621.59
2023-02-27T06:20:24.399Z,102616.31
2023-02-27T06:25:25.873Z,102625.34
2023-02-27T06:30:27.353Z,102621.47
2023-02-27T06:35:29.390Z,102631.06
2023-02-27T06:40:30.848Z,102633.59
2023-02-27T06:45:32.325Z,102638.69
2023-02-27T06:50:33.778Z,102649.28
2023-02-27T06:55:35.278Z,102668.78
2023-02-27T07:00:36.724Z,102663.06
2023-02-27T07:05:38.171Z,102660.34
2023-02-27T07:10:40.246Z,102667.31
2023-02-27T07:15:41.730Z,102674.19
2023-02-27T07:20:43.197Z,102674.69
2023-02-27T07:25:44.646Z,102677.31
2023-02-27T07:30:46.475Z,102696.53
2023-02-27T07:35:48.265Z,102693.75
2023-02-27T07:40:50.094Z,102697.47
2023-02-27T07:45:51.799Z,102712.06
2023-02-27T07:50:53.294Z,102719.13
2023-02-27T07:55:54.760Z,102717.44
2023-02-27T08:00:56.248Z,102727.59
2023-02-27T08:05:57.710Z,102739.50
2023-02-27T08:10:59.398Z,102725.16
2023-02-27T08:16:00.891Z,102722.00
2023-02-27T08:21:04.866Z,102713.47
2023-02-27T08:26:06.343Z,102717.81
2023-02-27T08:31:07.891Z,102715.22
2023-02-27T08:36:10.099Z,102719.34
2023-02-27T08:41:11.648Z,102725.31
2023-02-27T08:46:13.403Z,102715.94
2023-02-27T08:51:14.901Z,102720.47
2023-02-27T08:56:16.364Z,102726.47
2023-02-27T09:01:18.265Z,102724.88
2023-02-27T09:06:19.752Z,102728.31
2023-02-27T09:11:21.647Z,102720.56
2023-02-27T09:16:23.685Z,102726.63
2023-02-27T09:21:25.252Z,102719.69
2023-02-27T09:26:41.956Z,102718.84
2023-02-27T09:31:46.678Z,102730.06
2023-02-27T09:36:48.280Z,102719.72
2023-02-27T09:41:52.985Z,102734.25
2023-02-27T09:46:54.491Z,102726.59
2023-02-27T09:51:55.959Z,102736.13
2023-02-27T09:56:59.296Z,102733.53
2023-02-27T10:02:08.856Z,102737.81
2023-02-27T10:07:10.150Z,102747.34
2023-02-27T10:12:46.095Z,102726.59
2023-02-27T10:18:16.529Z,102730.09
2023-02-27T10:23:57.716Z,102740.38
2023-02-27T10:29:00.494Z,102740.38
2023-02-27T10:34:02.600Z,102749.03
2023-02-27T10:39:06.768Z,102755.88
2023-02-27T10:44:10.431Z,102748.94
2023-02-27T10:49:19.046Z,102763.69
2023-02-27T10:54:23.611Z,102755.13
2023-02-27T10:59:34.048Z,102751.63
2023-02-27T11:04:37.810Z,102743.81
2023-02-27T11:09:39.364Z,102736.97
2023-02-27T11:14:50.705Z,102747.16
2023-02-27T11:19:52.181Z,102736.88
2023-02-27T11:24:58.164Z,102756.88
2023-02-27T11:30:03.222Z,102743.03
2023-02-27T11:35:05.553Z,102735.97
2023-02-27T11:40:14.674Z,102735.16
2023-02-27T11:46:04.304Z,102738.59
2023-02-27T11:50:57.755Z,102723.09
2023-02-27T11:56:00.035Z,102722.94
2023-02-27T12:01:03.846Z,102725.59
2023-02-27T12:06:06.585Z,102721.94
2023-02-27T12:11:15.978Z,102711.50
2023-02-27T12:16:26.619Z,102724.03
2023-02-27T12:21:31.958Z,102714.50
2023-02-27T12:26:38.256Z,102716.25
2023-02-27T12:31:50.457Z,102711.94
2023-02-27T12:36:53.123Z,102710.19
2023-02-27T12:42:31.678Z,102702.31
2023-02-27T12:47:47.344Z,102701.47
2023-02-27T12:53:01.252Z,102698.94
2023-02-27T12:58:17.568Z,102704.97
2023-02-27T13:04:00.790Z,102699.66
2023-02-27T13:09:42.039Z,102707.63
2023-02-27T13:14:47.514Z,102693.69
2023-02-27T13:20:16.854Z,102695.44
2023-02-27T13:25:18.321Z,102697.13
2023-02-27T13:30:22.809Z,102694.66
2023-02-27T13:35:48.266Z,102718.88
2023-02-27T13:40:49.760Z,102710.13
2023-02-27T13:46:00.881Z,102715.31
2023-02-27T13:51:02.407Z,102719.72
2023-02-27T13:56:22.748Z,102718.78
2023-02-27T14:01:27.454Z,102710.09
2023-02-27T14:06:29.183Z,102714.53
2023-02-27T14:11:34.310Z,102718.78
2023-02-27T14:16:39.007Z,102709.28
2023-02-27T14:21:57.662Z,102717.00
2023-02-27T14:26:59.213Z,102713.53
2023-02-27T14:32:03.812Z,102712.56
2023-02-27T14:37:07.089Z,102708.28
2023-02-27T14:42:43.834Z,102698.91
2023-02-27T14:47:45.789Z,102703.28
2023-02-27T14:52:47.293Z,102710.19
2023-02-27T14:58:00.973Z,102709.25
2023-02-27T15:03:17.870Z,102711.09
2023-02-27T15:08:24.139Z,102702.31
2023-02-27T15:13:28.445Z,102714.50
2023-02-27T15:18:29.976Z,102714.53
2023-02-27T15:23:31.465Z,102712.81
2023-02-27T15:28:37.432Z,102712.81
2023-02-27T15:33:39.826Z,102724.03
2023-02-27T15:38:41.299Z,102716.28
2023-02-27T15:43:42.799Z,102716.28
2023-02-27T15:48:44.262Z,102721.44
2023-02-27T15:53:49.706Z,102731.81
2023-02-27T15:58:53.791Z,102728.38
2023-02-27T16:03:57.476Z,102720.56
2023-02-27T16:09:04.303Z,102724.91
2023-02-27T16:14:06.005Z,102714.53
2023-02-27T16:19:27.293Z,102713.66
2023-02-27T16:24:30.605Z,102694.66
2023-02-27T16:29:34.844Z,102702.44
2023-02-27T16:34:45.533Z,102715.41
2023-02-27T16:39:49.086Z,102708.47
2023-02-27T16:44:50.564Z,102719.72
2023-02-27T16:49:52.037Z,102705.50
2023-02-27T16:54:53.499Z,102711.03
2023-02-27T16:59:54.982Z,102711.09
2023-02-27T17:04:56.532Z,102701.53
2023-02-27T17:09:58.014Z,102714.44
2023-02-27T17:14:59.513Z,102710.81
2023-02-27T17:20:01.829Z,102713.66
2023-02-27T17:25:03.444Z,102711.91
2023-02-27T17:30:05.754Z,102720.59
2023-02-27T17:35:07.496Z,102718.00
2023-02-27T17:40:09.948Z,102717.16
2023-02-27T17:45:11.540Z,102715.41
2023-02-27T17:50:13.166Z,102710.25
2023-02-27T17:55:16.523Z,102719.69
2023-02-27T18:00:18.389Z,102720.56
2023-02-27T18:05:19.935Z,102725.53
2023-02-27T18:10:21.388Z,102726.44
2023-02-27T18:15:22.851Z,102720.56
2023-02-27T18:20:24.326Z,102708.44
2023-02-27T18:25:26.170Z,102715.34
2023-02-27T18:30:30.781Z,102711.91
2023-02-27T18:35:32.402Z,102707.59
2023-02-27T18:40:33.894Z,102724.66
2023-02-27T18:45:35.425Z,102713.59
2023-02-27T18:50:36.961Z,102722.16
2023-02-27T18:55:39.409Z,102716.19
2023-02-27T19:00:41.888Z,102720.53
2023-02-27T19:05:43.461Z,102726.56
2023-02-27T19:10:45.004Z,102725.72
2023-02-27T19:15:46.567Z,102720.53
2023-02-27T19:20:48.067Z,102716.19
2023-02-27T19:25:57.078Z,102711.75
2023-02-27T19:30:58.588Z,102713.38
2023-02-27T19:36:00.923Z,102714.22
2023-02-27T19:41:03.552Z,102721.94
2023-02-27T19:46:06.282Z,102718.63
2023-02-27T19:51:09.122Z,102720.47
2023-02-27T19:56:17.742Z,102721.34
2023-02-27T20:01:32.729Z,102721.38
2023-02-27T20:06:41.784Z,102730.00
2023-02-27T20:11:43.832Z,102722.94
2023-02-27T20:16:45.574Z,102720.34
2023-02-27T20:21:47.133Z,102724.63
2023-02-27T20:26:49.988Z,102729.75
2023-02-27T20:31:52.620Z,102731.97
2023-02-27T20:36:54.919Z,102729.66
2023-02-27T20:41:56.395Z,102729.75
2023-02-27T20:46:57.868Z,102736.94
2023-02-27T20:51:59.429Z,102729.75
2023-02-27T20:57:00.909Z,102739.47
2023-02-27T21:02:06.544Z,102733.16
2023-02-27T21:07:09.939Z,102722.94
2023-02-27T21:12:11.415Z,102722.19
2023-02-27T21:17:13.684Z,102727.19
2023-02-27T21:22:16.737Z,102726.53
2023-02-27T21:27:20.721Z,102729.72
2023-02-27T21:32:22.329Z,102724.69
2023-02-27T21:37:23.946Z,102721.22
2023-02-27T21:42:25.424Z,102724.69
2023-02-27T21:47:28.322Z,102727.19
2023-02-27T21:52:31.519Z,102704.09
2023-02-27T21:57:32.833Z,102724.84
2023-02-27T22:02:34.494Z,102713.38
2023-02-27T22:07:37.278Z,102710.22
2023-02-27T22:12:38.919Z,102713.69
2023-02-27T22:17:40.492Z,102721.44
2023-02-27T22:22:41.958Z,102715.41
2023-02-27T22:27:43.470Z,102730.88
2023-02-27T22:32:44.942Z,102721.41
2023-02-27T22:37:46.484Z,102722.28
2023-02-27T22:42:48.051Z,102712.81
2023-02-27T22:47:49.528Z,102716.25
2023-02-27T22:52:51.003Z,102713.66
2023-02-27T22:57:52.587Z,102719.63
2023-02-27T23:02:54.285Z,102725.19
2023-02-27T23:07:55.779Z,102727.59
2023-02-27T23:12:57.253Z,102725.50
2023-02-27T23:17:58.863Z,102729.13
2023-02-27T23:23:00.329Z,102727.47
2023-02-27T23:28:02.121Z,102726.63
2023-02-27T23:33:03.668Z,102722.06
2023-02-27T23:38:05.190Z,102725.47
2023-02-27T23:43:06.672Z,102729.03
2023-02-27T23:48:08.658Z,102735.84
2023-02-27T23:53:10.802Z,102741.84
2023-02-27T23:58:12.350Z,102738.63
